Decoded Metar for KBED (BEDFORD in MA, USA) (IATA:BED) | Meteo·Mobile Aviation Weather
aviador You're here:

KBED Decoded Metar

BEDFORD in MA, USA
Report Time2019-02-22 20:56:00
UTC Time2019-02-22 21:20:50
Flight Rules vfr VFR
Wind300° at 06 kt
W.Decomp.*RWY 29: 5.4 kt HW 2.6 kt RCW
RWY 23: 0.4 kt HW 6.0 kt RCW
W.Rank300° ranks 11
Current wind is below 300° avg. (8.9)
Visibility9999 m
Phenomena:N/A
Clouds:Broken 200 Hf
Expected CloudBase > 4,800 ft AGL from Temp-Dew spread
Ceiling20,000 ft
Temp06°C (ISA -9)
Dew Point-6°C (42% RH)
AAT1.1°C
QNH1026 hPa
Density Alt-1,266 ft
Elevation164 ft
Report Wrong Elevation
Raw Report
KBED 222056Z 30006KT 10SM BKN200 06/M06 A3029 RMK AO2 SLP272
T00561056 53003=

Extra information for KBED:More info

Metar Taf Metar & Taf Last 4 Metars F.Rules Stats Wind Profile Meteogram Temp Stats Airport Information Weather charts Add Link Nearby VenuesMetar ALERT Operation Metar Decoded Social comments

AIRNAV info for KBED